^^
Station Historical Data
Daily Summary for May 14, 2017 Units:  Metric    English   Both
« Previous Day
Next Day »
Daily Weekly Monthly Yearly Custom
  High: Low: Average:
Temperature: 24.9 °C 9.7 °C 16.8 °C
Dew Point: 3.7 °C -2.1 °C 0.6 °C
Humidity: 48% 22% 34%
Wind Speed: 25.9km/h 0km/h 6.1km/h
Wind Gust: 40.2km/h - -
Wind- - ENE
Pressure: 1020.5 hPa 1015.8 hPa -
Precipitation: 0 mm    
Historical Graphs
 
 
Tabular Data for May 14, 2017
Time Temperature Dew Point Pressure Wind Wind Speed Wind Gust Humidity Rainfall Rate (Hourly) solar Conditions
00:01 14.1 °C -1.5 °C 1018.8 hPa NE 3.2 km/h 9.7 km/h 34% 0 mm 0.0 W/m2
00:06 14.2 °C -1.4 °C 1018.8 hPa Calm     34% 0 mm 0.0 W/m2
00:11 14.3 °C -1.4 °C 1018.8 hPa NE 1.4 km/h 3.2 km/h 34% 0 mm 0.0 W/m2
00:16 14.6 °C -1.1 °C 1018.8 hPa Calm     34% 0 mm 0.0 W/m2
00:26 14.9 °C -1.2 °C 1018.8 hPa NE 9.7 km/h 11.3 km/h 33% 0 mm 0.0 W/m2
00:31 14.8 °C -1.3 °C 1018.5 hPa NE 6.4 km/h 6.4 km/h 33% 0 mm 0.0 W/m2
00:36 14.6 °C -1.1 °C 1018.5 hPa NE 1.4 km/h 9.7 km/h 34% 0 mm 0.0 W/m2
00:42 14.6 °C -1.1 °C 1018.5 hPa Calm   3.2 km/h 34% 0 mm 0.0 W/m2
00:47 14.5 °C -1.2 °C 1018.5 hPa NE 1.4 km/h 3.2 km/h 34% 0 mm 0.0 W/m2
00:52 14.5 °C -1.2 °C 1018.5 hPa NE 1.4 km/h 6.4 km/h 34% 0 mm 0.0 W/m2
00:57 14.7 °C -1 °C 1018.5 hPa NE 9.7 km/h 12.9 km/h 34% 0 mm 0.0 W/m2
01:02 14.8 °C -0.9 °C 1018.8 hPa NE 3.2 km/h 11.3 km/h 34% 0 mm 0.0 W/m2
01:07 15 °C -0.7 °C 1018.8 hPa NE 11.1 km/h 12.9 km/h 34% 0 mm 0.0 W/m2
01:12 15.1 °C -0.3 °C 1018.8 hPa NE 9.7 km/h 12.9 km/h 35% 0 mm 0.0 W/m2
01:17 15.1 °C -0.3 °C 1018.8 hPa NE 3.2 km/h 3.2 km/h 35% 0 mm 0.0 W/m2
01:22 15.1 °C -0.3 °C 1018.8 hPa NE 1.4 km/h 11.3 km/h 35% 0 mm 0.0 W/m2
01:27 15.1 °C -0.3 °C 1018.8 hPa NE 3.2 km/h 8 km/h 35% 0 mm 0.0 W/m2
01:32 15.2 °C -0.2 °C 1018.8 hPa Calm   3.2 km/h 35% 0 mm 0.0 W/m2
01:38 15.1 °C 0.1 °C 1018.8 hPa NE 11.1 km/h 12.9 km/h 36% 0 mm 0.0 W/m2
01:43 15.1 °C 0.1 °C 1018.5 hPa NE 7.9 km/h 9.7 km/h 36% 0 mm 0.0 W/m2
01:48 14.9 °C 0.3 °C 1018.5 hPa NE 7.9 km/h 11.3 km/h 37% 0 mm 0.0 W/m2
01:54 15 °C 0.4 °C 1018.5 hPa NE 7.9 km/h 12.9 km/h 37% 0 mm 0.0 W/m2
02:03 14.9 °C 0.7 °C 1018.5 hPa NE 11.1 km/h 11.3 km/h 38% 0 mm 0.0 W/m2
02:08 14.9 °C 0.7 °C 1018.5 hPa NE 7.9 km/h 12.9 km/h 38% 0 mm 0.0 W/m2
02:13 14.7 °C 0.5 °C 1018.5 hPa NE 7.9 km/h 11.3 km/h 38% 0 mm 0.0 W/m2
02:18 14.5 °C 0.3 °C 1018.5 hPa NE 11.1 km/h 14.5 km/h 38% 0 mm 0.0 W/m2
02:23 14.5 °C 0.3 °C 1018.5 hPa NE 6.4 km/h 12.9 km/h 38% 0 mm 0.0 W/m2
02:28 14.6 °C 0.4 °C 1018.5 hPa NE 9.7 km/h 11.3 km/h 38% 0 mm 0.0 W/m2
02:38 14.7 °C 0.5 °C 1018.5 hPa Calm   8 km/h 38% 0 mm 0.0 W/m2
02:43 14.7 °C 0.2 °C 1018.5 hPa Calm     37% 0 mm 0.0 W/m2
02:49 14.6 °C -0.7 °C 1018.5 hPa Calm     35% 0 mm 0.0 W/m2
02:54 14.3 °C -1 °C 1018.5 hPa Calm     35% 0 mm 0.0 W/m2
02:59 14.1 °C -1.1 °C 1018.5 hPa Calm     35% 0 mm 0.0 W/m2
03:10 13.7 °C -1.1 °C 1018.8 hPa Calm     36% 0 mm 0.0 W/m2
03:15 13.4 °C -1.4 °C 1018.5 hPa Calm     36% 0 mm 0.0 W/m2
03:20 13.2 °C -1.6 °C 1018.8 hPa Calm     36% 0 mm 0.0 W/m2
03:26 12.9 °C -1.4 °C 1018.8 hPa Calm     37% 0 mm 0.0 W/m2
03:35 12.4 °C -1.9 °C 1018.8 hPa Calm     37% 0 mm 0.0 W/m2
03:40 11.8 °C -2.1 °C 1018.8 hPa Calm     38% 0 mm 0.0 W/m2
03:45 11.4 °C -1.7 °C 1018.5 hPa Calm     40% 0 mm 0.0 W/m2
03:51 11.1 °C -1.7 °C 1018.5 hPa Calm     41% 0 mm 0.0 W/m2
03:56 10.8 °C -1.6 °C 1018.5 hPa Calm     42% 0 mm 0.0 W/m2
04:01 10.6 °C -1.5 °C 1018.8 hPa Calm     43% 0 mm 0.0 W/m2
04:06 10.6 °C -1.5 °C 1018.8 hPa Calm     43% 0 mm 0.0 W/m2
04:11 10.6 °C -1.5 °C 1018.8 hPa Calm     43% 0 mm 0.0 W/m2
04:17 10.6 °C -1.5 °C 1018.8 hPa Calm     43% 0 mm 0.0 W/m2
04:22 10.6 °C -1.5 °C 1018.8 hPa Calm     43% 0 mm 0.0 W/m2
04:28 10.3 °C -1.7 °C 1018.8 hPa Calm     43% 0 mm 0.0 W/m2
04:33 10.1 °C -1.6 °C 1018.8 hPa Calm     44% 0 mm 0.0 W/m2
04:43 10.1 °C -1.6 °C 1018.8 hPa Calm     44% 0 mm 0.0 W/m2
04:48 9.9 °C -1.8 °C 1019.2 hPa Calm     44% 0 mm 0.0 W/m2
04:53 9.8 °C -1.6 °C 1019.2 hPa Calm   11.3 km/h 45% 0 mm 0.0 W/m2
04:58 9.7 °C -1.4 °C 1019.2 hPa Calm     46% 0 mm 0.0 W/m2
05:03 9.7 °C -1.4 °C 1019.2 hPa NE 6.4 km/h 8 km/h 46% 0 mm 0.0 W/m2
05:13 9.9 °C -1.2 °C 1019.2 hPa NE 9.7 km/h 11.3 km/h 46% 0 mm 0.0 W/m2
05:23 9.8 °C -1 °C 1019.2 hPa NE 13 km/h 13 km/h 47% 0 mm 0.0 W/m2
05:28 9.9 °C -0.9 °C 1019.2 hPa NE 7.9 km/h 14.5 km/h 47% 0 mm 0.0 W/m2
05:33 10.1 °C -0.7 °C 1019.5 hPa Calm   12.9 km/h 47% 0 mm 0.0 W/m2
05:43 10.4 °C -0.7 °C 1019.5 hPa Calm   12.9 km/h 46% 0 mm 0.0 W/m2
05:48 10.5 °C -0.6 °C 1019.5 hPa NE 9.7 km/h 11.3 km/h 46% 0 mm 0.0 W/m2
05:53 10.6 °C -0.2 °C 1019.5 hPa NE 13 km/h 13 km/h 47% 0 mm 0.0 W/m2
05:58 10.6 °C -0.2 °C 1019.5 hPa NE 3.2 km/h 12.9 km/h 47% 0 mm 0.0 W/m2
06:03 10.6 °C 0 °C 1019.5 hPa NE 11.1 km/h 12.9 km/h 48% 0 mm 0.0 W/m2
06:08 10.6 °C -0.5 °C 1019.5 hPa Calm   11.3 km/h 46% 0 mm 0.0 W/m2
06:13 10.5 °C -0.3 °C 1019.5 hPa NE 3.2 km/h 12.9 km/h 47% 0 mm 0.0 W/m2
06:18 10.4 °C -0.4 °C 1019.5 hPa NE 9.7 km/h 12.9 km/h 47% 0 mm 0.0 W/m2
06:24 10.5 °C -0.3 °C 1019.9 hPa NE 9.7 km/h 12.9 km/h 47% 0 mm 5.0 W/m2
06:34 10.7 °C -0.2 °C 1019.9 hPa Calm   11.3 km/h 47% 0 mm 9.0 W/m2
06:39 10.7 °C -0.2 °C 1019.9 hPa NE 6.4 km/h 12.9 km/h 47% 0 mm 11.0 W/m2
06:44 10.8 °C -0.4 °C 1019.9 hPa NE 6.4 km/h 11.3 km/h 46% 0 mm 12.0 W/m2
06:49 11 °C -0.2 °C 1019.9 hPa NE 7.9 km/h 11.3 km/h 46% 0 mm 14.0 W/m2
06:59 11.2 °C 0 °C 1019.9 hPa Calm   12.9 km/h 46% 0 mm 19.0 W/m2
07:04 11.3 °C 0.1 °C 1019.9 hPa NE 11.1 km/h 12.9 km/h 46% 0 mm 42.0 W/m2
07:09 11.5 °C 0 °C 1020.2 hPa NE 7.9 km/h 14.5 km/h 45% 0 mm 60.0 W/m2
07:14 11.8 °C -0.1 °C 1020.2 hPa NE 6.4 km/h 11.3 km/h 44% 0 mm 102.0 W/m2
07:19 12.1 °C 0.2 °C 1020.2 hPa Calm   11.3 km/h 44% 0 mm 121.0 W/m2
07:25 12.4 °C 0.2 °C 1020.2 hPa NE 7.9 km/h 8 km/h 43% 0 mm 141.0 W/m2
07:38 13.2 °C 0.2 °C 1020.2 hPa NE 9.7 km/h 9.7 km/h 41% 0 mm 181.0 W/m2
07:48 13.8 °C 0.1 °C 1020.2 hPa Calm   11.3 km/h 39% 0 mm 221.0 W/m2
08:10 14.7 °C 0.2 °C 1020.5 hPa NE 9.7 km/h 9.7 km/h 37% 0 mm 290.0 W/m2
08:20 15.1 °C 0.1 °C 1020.5 hPa NE 3.2 km/h 14.5 km/h 36% 0 mm 318.0 W/m2
08:35 15.5 °C 0.1 °C 1020.5 hPa Calm   16.1 km/h 35% 0 mm 364.0 W/m2
08:44 15.8 °C 0.4 °C 1020.5 hPa Calm   14.5 km/h 35% 0 mm 390.0 W/m2
08:54 16.2 °C 0.3 °C 1020.5 hPa NE 11.1 km/h 14.5 km/h 34% 0 mm 418.0 W/m2
09:04 16.7 °C 0.8 °C 1020.5 hPa NE 14.3 km/h 20.9 km/h 34% 0 mm 438.0 W/m2
09:13 17.2 °C 0.8 °C 1020.5 hPa NE 16.3 km/h 20.9 km/h 33% 0 mm 468.0 W/m2
09:26 17.6 °C 1.1 °C 1020.5 hPa NE 11.1 km/h 14.5 km/h 33% 0 mm 487.0 W/m2
09:37 18.4 °C 2.3 °C 1020.5 hPa NNE 19.5 km/h 24.1 km/h 34% 0 mm 519.0 W/m2
09:45 18.7 °C 2.5 °C 1020.2 hPa NNE 13 km/h 16.1 km/h 34% 0 mm 540.0 W/m2
09:50 18.9 °C 2.7 °C 1020.2 hPa NNE 7.9 km/h 20.9 km/h 34% 0 mm 550.0 W/m2
09:55 19.4 °C 3.1 °C 1020.2 hPa NNE 17.7 km/h 20.9 km/h 34% 0 mm 555.0 W/m2
10:00 19.7 °C 3.4 °C 1020.2 hPa NNE 17.7 km/h 22.5 km/h 34% 0 mm 566.0 W/m2
10:10 20.1 °C 3.3 °C 1019.9 hPa NNE 24.1 km/h 30.6 km/h 33% 0 mm 580.0 W/m2
10:20 20.2 °C 3.4 °C 1019.9 hPa North 17.7 km/h 27.4 km/h 33% 0 mm 598.0 W/m2
10:31 20.4 °C 3.1 °C 1019.9 hPa North 20.9 km/h 27.4 km/h 32% 0 mm 612.0 W/m2
10:41 20.6 °C 3.3 °C 1019.5 hPa North 11.1 km/h 29 km/h 32% 0 mm 621.0 W/m2
10:50 20.8 °C 3.5 °C 1019.5 hPa North 14.3 km/h 29 km/h 32% 0 mm 635.0 W/m2
10:56 20.8 °C 3.5 °C 1019.5 hPa North 19.5 km/h 35.4 km/h 32% 0 mm 638.0 W/m2
11:01 20.8 °C 3.5 °C 1019.5 hPa North 17.7 km/h 32.2 km/h 32% 0 mm 638.0 W/m2
11:11 21.1 °C 3.3 °C 1019.5 hPa North 14.3 km/h 33.8 km/h 31% 0 mm 647.0 W/m2
11:16 21.1 °C 3.3 °C 1019.2 hPa North 17.7 km/h 27.4 km/h 31% 0 mm 650.0 W/m2
11:21 21.3 °C 3 °C 1019.2 hPa NNW 24.1 km/h 33.8 km/h 30% 0 mm 654.0 W/m2
11:31 21.5 °C 3.2 °C 1018.8 hPa NNW 25.9 km/h 33.8 km/h 30% 0 mm 656.0 W/m2
11:36 21.6 °C 3.3 °C 1018.8 hPa North 19.5 km/h 29 km/h 30% 0 mm 657.0 W/m2
11:41 21.6 °C 3.3 °C 1018.8 hPa North 9.7 km/h 37 km/h 30% 0 mm 656.0 W/m2
11:46 21.6 °C 3.3 °C 1018.8 hPa North 14.3 km/h 29 km/h 30% 0 mm 657.0 W/m2
11:51 21.9 °C 3.1 °C 1018.8 hPa North 17.7 km/h 40.2 km/h 29% 0 mm 657.0 W/m2
12:01 22.3 °C 3.4 °C 1018.5 hPa North 7.9 km/h 32.2 km/h 29% 0 mm 656.0 W/m2
12:11 22.3 °C 2.9 °C 1018.2 hPa North 16.3 km/h 22.5 km/h 28% 0 mm 652.0 W/m2
12:16 22.2 °C 3.3 °C 1018.2 hPa North 16.3 km/h 22.5 km/h 29% 0 mm 650.0 W/m2
12:22 22.6 °C 3.2 °C 1018.2 hPa North 19.5 km/h 27.4 km/h 28% 0 mm 647.0 W/m2
12:27 22.7 °C 3.7 °C 1017.8 hPa North 9.7 km/h 24.1 km/h 29% 0 mm 643.0 W/m2
12:33 23.1 °C 3.6 °C 1017.8 hPa North 11.1 km/h 24.1 km/h 28% 0 mm 638.0 W/m2
12:39 23.2 °C 3.2 °C 1017.8 hPa North 7.9 km/h 24.1 km/h 27% 0 mm 636.0 W/m2
12:49 23.2 °C 3.2 °C 1017.5 hPa North 22.7 km/h 22.7 km/h 27% 0 mm 628.0 W/m2
13:01 23.6 °C 3.5 °C 1017.2 hPa North 13 km/h 29 km/h 27% 0 mm 617.0 W/m2
13:16 23.7 °C 3.6 °C 1016.8 hPa North 13 km/h 25.7 km/h 27% 0 mm 596.0 W/m2
13:31 24 °C 3.3 °C 1016.8 hPa North 7.9 km/h 25.7 km/h 26% 0 mm 575.0 W/m2
13:50 24.2 °C 3.5 °C 1016.5 hPa North 16.3 km/h 30.6 km/h 26% 0 mm 540.0 W/m2
14:00 24.1 °C 3.4 °C 1016.5 hPa North 11.1 km/h 20.9 km/h 26% 0 mm 517.0 W/m2
14:11 24.6 °C 2.7 °C 1016.5 hPa North 17.7 km/h 20.9 km/h 24% 0 mm 494.0 W/m2
14:25 24.5 °C 3.2 °C 1016.1 hPa North 11.1 km/h 27.4 km/h 25% 0 mm 464.0 W/m2
14:35 24.4 °C 3.1 °C 1016.1 hPa North 14.3 km/h 19.3 km/h 25% 0 mm 439.0 W/m2
14:44 24.8 °C 2.9 °C 1016.1 hPa North 7.9 km/h 20.9 km/h 24% 0 mm 411.0 W/m2
14:55 24.8 °C 2.9 °C 1016.1 hPa North 13 km/h 22.5 km/h 24% 0 mm 387.0 W/m2
15:16 24.9 °C 2.3 °C 1016.1 hPa North 16.3 km/h 20.9 km/h 23% 0 mm 330.0 W/m2
15:25 24.8 °C 2.3 °C 1016.1 hPa North 13 km/h 19.3 km/h 23% 0 mm 306.0 W/m2
15:34 24.6 °C 2.1 °C 1015.8 hPa North 7.9 km/h 17.7 km/h 23% 0 mm 276.0 W/m2
15:44 24.8 °C 2.3 °C 1015.8 hPa North 9.7 km/h 19.3 km/h 23% 0 mm 206.0 W/m2
15:53 24.7 °C 2.2 °C 1015.8 hPa North 9.7 km/h 12.9 km/h 23% 0 mm 199.0 W/m2
16:02 24.7 °C 2.2 °C 1015.8 hPa North 13 km/h 14.5 km/h 23% 0 mm 105.0 W/m2
16:07 24.7 °C 2.2 °C 1015.8 hPa North 3.2 km/h 12.9 km/h 23% 0 mm 137.0 W/m2
16:17 24.7 °C 2.2 °C 1015.8 hPa Calm     23% 0 mm 95.0 W/m2
16:22 24.7 °C 1.6 °C 1015.8 hPa North 6.4 km/h 12.9 km/h 22% 0 mm 86.0 W/m2
16:28 24.5 °C 2 °C 1015.8 hPa Calm   12.9 km/h 23% 0 mm 69.0 W/m2
16:39 24.3 °C 1.8 °C 1016.1 hPa Calm     23% 0 mm 39.0 W/m2
16:48 24.2 °C 2.4 °C 1016.1 hPa Calm     24% 0 mm 16.0 W/m2
16:53 24.1 °C 2.3 °C 1016.1 hPa Calm     24% 0 mm 12.0 W/m2
16:59 23.8 °C 2 °C 1016.1 hPa Calm     24% 0 mm 9.0 W/m2
17:05 23.6 °C 1.8 °C 1016.1 hPa Calm     24% 0 mm 7.0 W/m2
17:25 23.1 °C 2 °C 1016.1 hPa Calm     25% 0 mm 0.0 W/m2
17:39 22.6 °C 2.1 °C 1016.5 hPa Calm     26% 0 mm 0.0 W/m2
17:55 22.3 °C 1.9 °C 1016.5 hPa Calm     26% 0 mm 0.0 W/m2
18:10 22 °C 2.1 °C 1016.5 hPa Calm     27% 0 mm 0.0 W/m2
18:57 19.6 °C 1.1 °C 1016.8 hPa Calm     29% 0 mm 0.0 W/m2
19:13 18.6 °C 1.1 °C 1016.8 hPa Calm     31% 0 mm 0.0 W/m2
19:26 18.2 °C 1.2 °C 1017.2 hPa Calm     32% 0 mm 0.0 W/m2
19:36 17.8 °C 0.9 °C 1017.5 hPa Calm     32% 0 mm 0.0 W/m2
20:04 17.1 °C 1.1 °C 1017.8 hPa Calm     34% 0 mm 0.0 W/m2
20:18 17.1 °C 1.1 °C 1017.8 hPa Calm     34% 0 mm 0.0 W/m2
20:28 17.2 °C 1.2 °C 1017.8 hPa Calm     34% 0 mm 0.0 W/m2
20:41 17.4 °C 1 °C 1017.8 hPa Calm     33% 0 mm 0.0 W/m2
20:56 17.4 °C 1 °C 1017.8 hPa Calm     33% 0 mm 0.0 W/m2
21:07 17.5 °C 1 °C 1017.8 hPa Calm     33% 0 mm 0.0 W/m2
21:17 17.7 °C 0.8 °C 1017.8 hPa Calm     32% 0 mm 0.0 W/m2
21:22 17.7 °C 0.8 °C 1018.2 hPa Calm     32% 0 mm 0.0 W/m2
21:32 17.7 °C 0.8 °C 1018.2 hPa Calm     32% 0 mm 0.0 W/m2
21:37 17.6 °C 0.7 °C 1018.2 hPa Calm     32% 0 mm 0.0 W/m2
21:43 17.6 °C 0.7 °C 1018.2 hPa Calm     32% 0 mm 0.0 W/m2
21:48 17.6 °C 0.3 °C 1018.2 hPa Calm     31% 0 mm 0.0 W/m2
21:53 17.8 °C 0.4 °C 1018.2 hPa Calm     31% 0 mm 0.0 W/m2
21:58 17.8 °C 0 °C 1018.2 hPa Calm     30% 0 mm 0.0 W/m2
22:04 17.8 °C 0 °C 1018.2 hPa Calm   12.9 km/h 30% 0 mm 0.0 W/m2
22:09 17.8 °C 0 °C 1018.2 hPa North 11.1 km/h 14.5 km/h 30% 0 mm 0.0 W/m2
22:14 17.8 °C 0 °C 1018.5 hPa North 6.4 km/h 11.3 km/h 30% 0 mm 0.0 W/m2
22:19 17.8 °C -0.5 °C 1018.5 hPa North 6.4 km/h 8 km/h 29% 0 mm 0.0 W/m2
22:24 17.8 °C -0.5 °C 1018.5 hPa Calm   8 km/h 29% 0 mm 0.0 W/m2
22:29 17.8 °C -0.5 °C 1018.5 hPa Calm     29% 0 mm 0.0 W/m2
22:35 17.7 °C -0.6 °C 1018.5 hPa Calm     29% 0 mm 0.0 W/m2
22:40 17.6 °C -0.7 °C 1018.5 hPa North 9.7 km/h 11.3 km/h 29% 0 mm 0.0 W/m2
22:45 17.6 °C -0.2 °C 1018.5 hPa Calm   9.7 km/h 30% 0 mm 0.0 W/m2
22:50 17.5 °C -0.7 °C 1018.5 hPa Calm     29% 0 mm 0.0 W/m2
23:00 16.9 °C -0.8 °C 1018.8 hPa North 1.4 km/h 8 km/h 30% 0 mm 0.0 W/m2
23:10 16.2 °C -1 °C 1018.8 hPa North 7.9 km/h 9.7 km/h 31% 0 mm 0.0 W/m2
23:15 16 °C -1.1 °C 1018.8 hPa Calm     31% 0 mm 0.0 W/m2
23:20 15.8 °C -1.3 °C 1018.8 hPa North 9.7 km/h 9.7 km/h 31% 0 mm 0.0 W/m2
23:25 15.7 °C -1.4 °C 1018.8 hPa North 7.9 km/h 11.3 km/h 31% 0 mm 0.0 W/m2
23:30 15.5 °C -1.1 °C 1018.8 hPa North 6.4 km/h 6.4 km/h 32% 0 mm 0.0 W/m2
23:36 15.3 °C -1.3 °C 1018.8 hPa Calm   8 km/h 32% 0 mm 0.0 W/m2
23:42 15.1 °C -1.5 °C 1018.8 hPa Calm     32% 0 mm 0.0 W/m2
23:47 14.8 °C -1.7 °C 1018.8 hPa North 9.7 km/h 9.7 km/h 32% 0 mm 0.0 W/m2
23:52 14.5 °C -1.6 °C 1018.8 hPa North 3.2 km/h 9.7 km/h 33% 0 mm 0.0 W/m2
23:57 14.1 °C -1.5 °C 1018.8 hPa Calm   6.4 km/h 34% 0 mm 0.0 W/m2
Canyon Roadhouse, Fishriver Canyon, Namibia
Compliments of Weather Underground - 2.5 mb